sensor_id;sensor_type;location;lat;lon;timestamp;temperature;humidity
9410;DHT22;4744;52.576;13.568;2022-10-16T00:00:40;14.70;1.00
9410;DHT22;4744;52.576;13.568;2022-10-16T00:03:09;14.70;1.00
9410;DHT22;4744;52.576;13.568;2022-10-16T00:05:40;14.70;1.00
9410;DHT22;4744;52.576;13.568;2022-10-16T00:08:07;14.70;1.00
9410;DHT22;4744;52.576;13.568;2022-10-16T00:10:35;14.80;1.00
9410;DHT22;4744;52.576;13.568;2022-10-16T00:13:02;14.70;1.00
9410;DHT22;4744;52.576;13.568;2022-10-16T00:15:29;14.80;1.00
9410;DHT22;4744;52.576;13.568;2022-10-16T00:17:56;14.80;1.00
9410;DHT22;4744;52.576;13.568;2022-10-16T00:20:24;14.80;1.00
9410;DHT22;4744;52.576;13.568;2022-10-16T00:22:51;14.80;1.00
9410;DHT22;4744;52.576;13.568;2022-10-16T00:25:18;14.80;1.00
9410;DHT22;4744;52.576;13.568;2022-10-16T00:27:44;14.90;1.00
9410;DHT22;4744;52.576;13.568;2022-10-16T00:30:11;14.90;1.00
9410;DHT22;4744;52.576;13.568;2022-10-16T00:32:38;14.90;1.00
9410;DHT22;4744;52.576;13.568;2022-10-16T00:35:05;15.00;1.00
9410;DHT22;4744;52.576;13.568;2022-10-16T00:37:34;15.00;1.00
9410;DHT22;4744;52.576;13.568;2022-10-16T00:40:00;15.00;1.00
9410;DHT22;4744;52.576;13.568;2022-10-16T00:42:27;15.00;1.00
9410;DHT22;4744;52.576;13.568;2022-10-16T00:44:56;15.00;1.00
9410;DHT22;4744;52.576;13.568;2022-10-16T00:47:27;15.00;1.00
9410;DHT22;4744;52.576;13.568;2022-10-16T00:49:59;15.00;1.00
9410;DHT22;4744;52.576;13.568;2022-10-16T00:52:28;15.00;1.00
9410;DHT22;4744;52.576;13.568;2022-10-16T00:54:56;15.10;1.00
9410;DHT22;4744;52.576;13.568;2022-10-16T00:57:24;15.10;1.00
9410;DHT22;4744;52.576;13.568;2022-10-16T00:59:52;15.10;1.00
9410;DHT22;4744;52.576;13.568;2022-10-16T01:02:19;15.10;1.00
9410;DHT22;4744;52.576;13.568;2022-10-16T01:04:48;15.10;1.00
9410;DHT22;4744;52.576;13.568;2022-10-16T01:07:29;15.10;1.00
9410;DHT22;4744;52.576;13.568;2022-10-16T01:10:17;15.10;1.00
9410;DHT22;4744;52.576;13.568;2022-10-16T01:12:51;15.00;1.00
9410;DHT22;4744;52.576;13.568;2022-10-16T01:15:23;15.10;1.00
9410;DHT22;4744;52.576;13.568;2022-10-16T01:17:55;15.10;1.00
9410;DHT22;4744;52.576;13.568;2022-10-16T01:20:27;15.10;1.00
9410;DHT22;4744;52.576;13.568;2022-10-16T01:23:10;15.10;1.00
9410;DHT22;4744;52.576;13.568;2022-10-16T01:26:10;15.10;1.00
9410;DHT22;4744;52.576;13.568;2022-10-16T01:28:46;15.00;1.00
9410;DHT22;4744;52.576;13.568;2022-10-16T01:31:16;15.10;1.00
9410;DHT22;4744;52.576;13.568;2022-10-16T01:33:47;15.10;1.00
9410;DHT22;4744;52.576;13.568;2022-10-16T01:36:17;15.00;1.00
9410;DHT22;4744;52.576;13.568;2022-10-16T01:38:48;15.00;1.00
9410;DHT22;4744;52.576;13.568;2022-10-16T01:41:19;15.00;1.00
9410;DHT22;4744;52.576;13.568;2022-10-16T01:43:52;15.00;1.00
9410;DHT22;4744;52.576;13.568;2022-10-16T01:46:21;14.90;1.00
9410;DHT22;4744;52.576;13.568;2022-10-16T01:48:48;14.90;1.00
9410;DHT22;4744;52.576;13.568;2022-10-16T01:51:18;14.90;1.00
9410;DHT22;4744;52.576;13.568;2022-10-16T01:53:49;14.90;1.00
9410;DHT22;4744;52.576;13.568;2022-10-16T01:56:19;14.90;1.00
9410;DHT22;4744;52.576;13.568;2022-10-16T01:58:52;14.90;1.00
9410;DHT22;4744;52.576;13.568;2022-10-16T02:01:22;14.90;1.00
9410;DHT22;4744;52.576;13.568;2022-10-16T02:03:52;14.90;1.00
9410;DHT22;4744;52.576;13.568;2022-10-16T02:06:20;14.90;1.00
9410;DHT22;4744;52.576;13.568;2022-10-16T02:08:47;14.90;1.00
9410;DHT22;4744;52.576;13.568;2022-10-16T02:11:14;14.90;1.00
9410;DHT22;4744;52.576;13.568;2022-10-16T02:13:45;14.90;1.00
9410;DHT22;4744;52.576;13.568;2022-10-16T02:16:14;14.90;1.00
9410;DHT22;4744;52.576;13.568;2022-10-16T02:18:42;14.90;1.00
9410;DHT22;4744;52.576;13.568;2022-10-16T02:21:15;14.90;1.00
9410;DHT22;4744;52.576;13.568;2022-10-16T02:23:47;15.00;1.00
9410;DHT22;4744;52.576;13.568;2022-10-16T02:26:19;15.00;1.00
9410;DHT22;4744;52.576;13.568;2022-10-16T02:28:54;15.00;1.00
9410;DHT22;4744;52.576;13.568;2022-10-16T02:31:27;15.00;1.00
9410;DHT22;4744;52.576;13.568;2022-10-16T02:33:55;15.00;1.00
9410;DHT22;4744;52.576;13.568;2022-10-16T02:36:25;15.00;1.00
9410;DHT22;4744;52.576;13.568;2022-10-16T02:38:53;15.00;1.00
9410;DHT22;4744;52.576;13.568;2022-10-16T02:41:21;15.10;1.00
9410;DHT22;4744;52.576;13.568;2022-10-16T02:43:48;15.10;1.00
9410;DHT22;4744;52.576;13.568;2022-10-16T02:46:16;15.10;1.00
9410;DHT22;4744;52.576;13.568;2022-10-16T02:48:44;15.10;1.00
9410;DHT22;4744;52.576;13.568;2022-10-16T02:51:11;15.10;1.00
9410;DHT22;4744;52.576;13.568;2022-10-16T02:53:38;15.10;1.00
9410;DHT22;4744;52.576;13.568;2022-10-16T02:56:05;15.10;1.00
9410;DHT22;4744;52.576;13.568;2022-10-16T02:58:32;15.00;1.00
9410;DHT22;4744;52.576;13.568;2022-10-16T03:00:58;15.10;1.00
9410;DHT22;4744;52.576;13.568;2022-10-16T03:03:25;15.10;1.00
9410;DHT22;4744;52.576;13.568;2022-10-16T03:05:53;15.10;1.00
9410;DHT22;4744;52.576;13.568;2022-10-16T03:08:20;15.00;1.00
9410;DHT22;4744;52.576;13.568;2022-10-16T03:10:49;15.00;1.00
9410;DHT22;4744;52.576;13.568;2022-10-16T03:13:15;15.00;1.00
9410;DHT22;4744;52.576;13.568;2022-10-16T03:15:43;15.00;1.00
9410;DHT22;4744;52.576;13.568;2022-10-16T03:18:10;15.10;1.00
9410;DHT22;4744;52.576;13.568;2022-10-16T03:20:37;15.00;1.00
9410;DHT22;4744;52.576;13.568;2022-10-16T03:23:05;15.00;1.00
9410;DHT22;4744;52.576;13.568;2022-10-16T03:25:33;15.00;1.00
9410;DHT22;4744;52.576;13.568;2022-10-16T03:28:00;15.00;1.00
9410;DHT22;4744;52.576;13.568;2022-10-16T03:30:27;15.00;1.00
9410;DHT22;4744;52.576;13.568;2022-10-16T03:32:53;15.00;1.00
9410;DHT22;4744;52.576;13.568;2022-10-16T03:35:20;15.00;1.00
9410;DHT22;4744;52.576;13.568;2022-10-16T03:37:47;15.00;1.00
9410;DHT22;4744;52.576;13.568;2022-10-16T03:40:16;14.90;1.00
9410;DHT22;4744;52.576;13.568;2022-10-16T03:42:43;14.90;1.00
9410;DHT22;4744;52.576;13.568;2022-10-16T03:45:10;14.90;1.00
9410;DHT22;4744;52.576;13.568;2022-10-16T03:47:37;14.90;1.00
9410;DHT22;4744;52.576;13.568;2022-10-16T03:50:05;14.90;1.00
9410;DHT22;4744;52.576;13.568;2022-10-16T03:52:32;14.90;1.00
9410;DHT22;4744;52.576;13.568;2022-10-16T03:54:59;14.90;1.00
9410;DHT22;4744;52.576;13.568;2022-10-16T03:57:27;14.90;1.00
9410;DHT22;4744;52.576;13.568;2022-10-16T03:59:54;14.90;1.00
9410;DHT22;4744;52.576;13.568;2022-10-16T04:02:21;14.90;1.00
9410;DHT22;4744;52.576;13.568;2022-10-16T04:04:47;14.90;1.00
9410;DHT22;4744;52.576;13.568;2022-10-16T04:07:14;14.90;1.00
9410;DHT22;4744;52.576;13.568;2022-10-16T04:09:41;14.80;1.00
9410;DHT22;4744;52.576;13.568;2022-10-16T04:12:08;14.80;1.00
9410;DHT22;4744;52.576;13.568;2022-10-16T04:14:36;14.80;1.00
9410;DHT22;4744;52.576;13.568;2022-10-16T04:17:03;14.80;1.00
9410;DHT22;4744;52.576;13.568;2022-10-16T04:19:29;14.80;1.00
9410;DHT22;4744;52.576;13.568;2022-10-16T04:21:56;14.80;1.00
9410;DHT22;4744;52.576;13.568;2022-10-16T04:24:23;14.80;1.00
9410;DHT22;4744;52.576;13.568;2022-10-16T04:26:50;14.80;1.00
9410;DHT22;4744;52.576;13.568;2022-10-16T04:29:16;14.80;1.00
9410;DHT22;4744;52.576;13.568;2022-10-16T04:31:45;14.80;1.00
9410;DHT22;4744;52.576;13.568;2022-10-16T04:34:11;14.80;1.00
9410;DHT22;4744;52.576;13.568;2022-10-16T04:36:38;14.80;1.00
9410;DHT22;4744;52.576;13.568;2022-10-16T04:39:05;14.70;1.00
9410;DHT22;4744;52.576;13.568;2022-10-16T04:41:31;14.70;1.00
9410;DHT22;4744;52.576;13.568;2022-10-16T04:43:58;14.80;1.00
9410;DHT22;4744;52.576;13.568;2022-10-16T04:46:25;14.80;1.00
9410;DHT22;4744;52.576;13.568;2022-10-16T04:48:53;14.70;1.00
9410;DHT22;4744;52.576;13.568;2022-10-16T04:51:20;14.80;1.00
9410;DHT22;4744;52.576;13.568;2022-10-16T04:53:47;14.70;1.00
9410;DHT22;4744;52.576;13.568;2022-10-16T04:56:13;14.70;1.00
9410;DHT22;4744;52.576;13.568;2022-10-16T04:58:41;14.70;1.00
9410;DHT22;4744;52.576;13.568;2022-10-16T05:01:07;14.70;1.00
9410;DHT22;4744;52.576;13.568;2022-10-16T05:03:34;14.70;1.00
9410;DHT22;4744;52.576;13.568;2022-10-16T05:06:05;14.60;1.00
9410;DHT22;4744;52.576;13.568;2022-10-16T05:08:32;14.60;1.00
9410;DHT22;4744;52.576;13.568;2022-10-16T05:10:59;14.60;1.00
9410;DHT22;4744;52.576;13.568;2022-10-16T05:13:25;14.50;1.00
9410;DHT22;4744;52.576;13.568;2022-10-16T05:15:52;14.50;1.00
9410;DHT22;4744;52.576;13.568;2022-10-16T05:18:19;14.50;1.00
9410;DHT22;4744;52.576;13.568;2022-10-16T05:20:46;14.50;1.00
9410;DHT22;4744;52.576;13.568;2022-10-16T05:23:14;14.50;1.00
9410;DHT22;4744;52.576;13.568;2022-10-16T05:25:40;14.40;1.00
9410;DHT22;4744;52.576;13.568;2022-10-16T05:28:07;14.40;1.00
9410;DHT22;4744;52.576;13.568;2022-10-16T05:30:37;14.40;1.00
9410;DHT22;4744;52.576;13.568;2022-10-16T05:33:04;14.40;1.00
9410;DHT22;4744;52.576;13.568;2022-10-16T05:35:30;14.40;1.00
9410;DHT22;4744;52.576;13.568;2022-10-16T05:37:57;14.40;1.00
9410;DHT22;4744;52.576;13.568;2022-10-16T05:40:25;14.40;1.00
9410;DHT22;4744;52.576;13.568;2022-10-16T05:42:55;14.40;1.00
9410;DHT22;4744;52.576;13.568;2022-10-16T05:45:21;14.40;1.00
9410;DHT22;4744;52.576;13.568;2022-10-16T05:47:48;14.40;1.00
9410;DHT22;4744;52.576;13.568;2022-10-16T05:50:15;14.50;1.00
9410;DHT22;4744;52.576;13.568;2022-10-16T05:52:42;14.40;1.00
9410;DHT22;4744;52.576;13.568;2022-10-16T05:55:09;14.50;1.00
9410;DHT22;4744;52.576;13.568;2022-10-16T05:57:37;14.50;1.00
9410;DHT22;4744;52.576;13.568;2022-10-16T06:00:05;14.50;1.00
9410;DHT22;4744;52.576;13.568;2022-10-16T06:02:31;14.50;1.00
9410;DHT22;4744;52.576;13.568;2022-10-16T06:04:58;14.50;1.00
9410;DHT22;4744;52.576;13.568;2022-10-16T06:07:25;14.50;1.00
9410;DHT22;4744;52.576;13.568;2022-10-16T06:09:52;14.50;1.00
9410;DHT22;4744;52.576;13.568;2022-10-16T06:12:20;14.50;1.00
9410;DHT22;4744;52.576;13.568;2022-10-16T06:14:48;14.50;1.00
9410;DHT22;4744;52.576;13.568;2022-10-16T06:17:15;14.50;1.00
9410;DHT22;4744;52.576;13.568;2022-10-16T06:19:42;14.50;1.00
9410;DHT22;4744;52.576;13.568;2022-10-16T06:22:08;14.50;1.00
9410;DHT22;4744;52.576;13.568;2022-10-16T06:24:35;14.50;1.00
9410;DHT22;4744;52.576;13.568;2022-10-16T06:27:03;14.50;1.00
9410;DHT22;4744;52.576;13.568;2022-10-16T06:29:30;14.50;1.00
9410;DHT22;4744;52.576;13.568;2022-10-16T06:31:58;14.60;1.00
9410;DHT22;4744;52.576;13.568;2022-10-16T06:34:24;14.60;1.00
9410;DHT22;4744;52.576;13.568;2022-10-16T06:36:51;14.60;1.00
9410;DHT22;4744;52.576;13.568;2022-10-16T06:39:18;14.70;1.00
9410;DHT22;4744;52.576;13.568;2022-10-16T06:41:45;14.70;1.00
9410;DHT22;4744;52.576;13.568;2022-10-16T06:44:11;14.70;1.00
9410;DHT22;4744;52.576;13.568;2022-10-16T06:46:38;14.70;1.00
9410;DHT22;4744;52.576;13.568;2022-10-16T06:49:06;14.70;1.00
9410;DHT22;4744;52.576;13.568;2022-10-16T06:51:33;14.80;1.00
9410;DHT22;4744;52.576;13.568;2022-10-16T06:54:01;14.80;1.00
9410;DHT22;4744;52.576;13.568;2022-10-16T06:56:29;14.80;1.00
9410;DHT22;4744;52.576;13.568;2022-10-16T06:58:57;14.80;1.00
9410;DHT22;4744;52.576;13.568;2022-10-16T07:01:24;14.80;1.00
9410;DHT22;4744;52.576;13.568;2022-10-16T07:03:52;14.90;1.00
9410;DHT22;4744;52.576;13.568;2022-10-16T07:06:23;14.90;1.00
9410;DHT22;4744;52.576;13.568;2022-10-16T07:08:50;14.90;1.00
9410;DHT22;4744;52.576;13.568;2022-10-16T07:11:18;15.00;1.00
9410;DHT22;4744;52.576;13.568;2022-10-16T07:13:46;15.00;1.00
9410;DHT22;4744;52.576;13.568;2022-10-16T07:16:15;15.10;1.00
9410;DHT22;4744;52.576;13.568;2022-10-16T07:18:43;15.10;1.00
9410;DHT22;4744;52.576;13.568;2022-10-16T07:21:12;15.20;1.00
9410;DHT22;4744;52.576;13.568;2022-10-16T07:23:41;15.30;1.00
9410;DHT22;4744;52.576;13.568;2022-10-16T07:26:09;15.40;1.00
9410;DHT22;4744;52.576;13.568;2022-10-16T07:28:36;15.40;1.00
9410;DHT22;4744;52.576;13.568;2022-10-16T07:31:06;15.50;1.00
9410;DHT22;4744;52.576;13.568;2022-10-16T07:33:34;15.60;1.00
9410;DHT22;4744;52.576;13.568;2022-10-16T07:36:01;15.60;1.00
9410;DHT22;4744;52.576;13.568;2022-10-16T07:38:28;15.70;1.00
9410;DHT22;4744;52.576;13.568;2022-10-16T07:40:59;15.80;1.00
9410;DHT22;4744;52.576;13.568;2022-10-16T07:43:27;15.80;1.00
9410;DHT22;4744;52.576;13.568;2022-10-16T07:45:54;15.90;1.00
9410;DHT22;4744;52.576;13.568;2022-10-16T07:48:22;15.90;1.00
9410;DHT22;4744;52.576;13.568;2022-10-16T07:50:49;15.90;1.00
9410;DHT22;4744;52.576;13.568;2022-10-16T07:53:16;16.00;1.00
9410;DHT22;4744;52.576;13.568;2022-10-16T07:55:43;16.00;1.00
9410;DHT22;4744;52.576;13.568;2022-10-16T07:58:11;16.00;1.00
9410;DHT22;4744;52.576;13.568;2022-10-16T08:00:38;16.00;1.00
9410;DHT22;4744;52.576;13.568;2022-10-16T08:03:04;16.00;1.00
9410;DHT22;4744;52.576;13.568;2022-10-16T08:05:32;16.00;1.00
9410;DHT22;4744;52.576;13.568;2022-10-16T08:08:00;16.00;1.00
9410;DHT22;4744;52.576;13.568;2022-10-16T08:10:28;16.00;1.00
9410;DHT22;4744;52.576;13.568;2022-10-16T08:12:57;16.00;1.00
9410;DHT22;4744;52.576;13.568;2022-10-16T08:15:25;16.00;1.00
9410;DHT22;4744;52.576;13.568;2022-10-16T08:17:57;16.00;1.00
9410;DHT22;4744;52.576;13.568;2022-10-16T08:20:24;16.00;1.00
9410;DHT22;4744;52.576;13.568;2022-10-16T08:22:51;16.00;1.00
9410;DHT22;4744;52.576;13.568;2022-10-16T08:25:18;16.10;1.00
9410;DHT22;4744;52.576;13.568;2022-10-16T08:27:44;16.10;1.00
9410;DHT22;4744;52.576;13.568;2022-10-16T08:30:13;16.20;1.00
9410;DHT22;4744;52.576;13.568;2022-10-16T08:32:41;16.20;1.00
9410;DHT22;4744;52.576;13.568;2022-10-16T08:35:08;16.30;1.00
9410;DHT22;4744;52.576;13.568;2022-10-16T08:37:36;16.30;1.00
9410;DHT22;4744;52.576;13.568;2022-10-16T08:40:04;16.40;1.00
9410;DHT22;4744;52.576;13.568;2022-10-16T08:42:43;16.40;1.00
9410;DHT22;4744;52.576;13.568;2022-10-16T08:45:23;16.40;1.00
9410;DHT22;4744;52.576;13.568;2022-10-16T08:48:00;16.50;1.00
9410;DHT22;4744;52.576;13.568;2022-10-16T08:50:37;16.50;1.00
9410;DHT22;4744;52.576;13.568;2022-10-16T08:53:05;16.50;1.00
9410;DHT22;4744;52.576;13.568;2022-10-16T08:55:37;16.70;1.00
9410;DHT22;4744;52.576;13.568;2022-10-16T08:58:12;16.70;1.00
9410;DHT22;4744;52.576;13.568;2022-10-16T09:00:39;16.70;1.00
9410;DHT22;4744;52.576;13.568;2022-10-16T09:03:16;16.80;1.00
9410;DHT22;4744;52.576;13.568;2022-10-16T09:06:01;16.80;1.00
9410;DHT22;4744;52.576;13.568;2022-10-16T09:08:42;16.90;1.00
9410;DHT22;4744;52.576;13.568;2022-10-16T09:11:15;16.80;1.00
9410;DHT22;4744;52.576;13.568;2022-10-16T09:13:48;16.90;1.00
9410;DHT22;4744;52.576;13.568;2022-10-16T09:16:19;16.90;1.00
9410;DHT22;4744;52.576;13.568;2022-10-16T09:18:56;17.20;1.00
9410;DHT22;4744;52.576;13.568;2022-10-16T09:21:27;17.50;1.00
9410;DHT22;4744;52.576;13.568;2022-10-16T09:23:58;17.60;1.00
9410;DHT22;4744;52.576;13.568;2022-10-16T09:26:26;17.70;1.00
9410;DHT22;4744;52.576;13.568;2022-10-16T09:28:53;17.70;1.00
9410;DHT22;4744;52.576;13.568;2022-10-16T09:31:21;17.80;1.00
9410;DHT22;4744;52.576;13.568;2022-10-16T09:33:54;17.80;1.00
9410;DHT22;4744;52.576;13.568;2022-10-16T09:36:23;17.80;1.00
9410;DHT22;4744;52.576;13.568;2022-10-16T09:39:00;17.80;1.00
9410;DHT22;4744;52.576;13.568;2022-10-16T09:41:27;17.90;1.00
9410;DHT22;4744;52.576;13.568;2022-10-16T09:43:56;18.10;1.00
9410;DHT22;4744;52.576;13.568;2022-10-16T09:46:28;18.20;1.00
9410;DHT22;4744;52.576;13.568;2022-10-16T09:48:58;18.30;1.00
9410;DHT22;4744;52.576;13.568;2022-10-16T09:51:27;18.40;1.00
9410;DHT22;4744;52.576;13.568;2022-10-16T09:53:57;18.50;1.00
9410;DHT22;4744;52.576;13.568;2022-10-16T09:56:26;18.60;1.00
9410;DHT22;4744;52.576;13.568;2022-10-16T09:58:54;18.80;1.00
9410;DHT22;4744;52.576;13.568;2022-10-16T10:01:24;18.90;1.00
9410;DHT22;4744;52.576;13.568;2022-10-16T10:03:57;18.80;1.00
9410;DHT22;4744;52.576;13.568;2022-10-16T10:06:28;18.80;1.00
9410;DHT22;4744;52.576;13.568;2022-10-16T10:09:02;18.70;1.00
9410;DHT22;4744;52.576;13.568;2022-10-16T10:11:41;18.70;1.00
9410;DHT22;4744;52.576;13.568;2022-10-16T10:14:17;18.90;1.00
9410;DHT22;4744;52.576;13.568;2022-10-16T10:16:44;19.10;1.00
9410;DHT22;4744;52.576;13.568;2022-10-16T10:19:16;19.20;1.00
9410;DHT22;4744;52.576;13.568;2022-10-16T10:21:43;19.20;1.00
9410;DHT22;4744;52.576;13.568;2022-10-16T10:24:11;19.20;1.00
9410;DHT22;4744;52.576;13.568;2022-10-16T10:26:44;19.10;1.00
9410;DHT22;4744;52.576;13.568;2022-10-16T10:29:17;19.10;1.00
9410;DHT22;4744;52.576;13.568;2022-10-16T10:31:56;19.00;1.00
9410;DHT22;4744;52.576;13.568;2022-10-16T10:34:37;18.90;1.00
9410;DHT22;4744;52.576;13.568;2022-10-16T10:37:15;18.90;1.00
9410;DHT22;4744;52.576;13.568;2022-10-16T10:39:52;18.90;1.00
9410;DHT22;4744;52.576;13.568;2022-10-16T10:42:25;18.80;1.00
9410;DHT22;4744;52.576;13.568;2022-10-16T10:48:20;18.80;1.00
9410;DHT22;4744;52.576;13.568;2022-10-16T10:50:54;18.70;1.00
9410;DHT22;4744;52.576;13.568;2022-10-16T10:53:32;18.70;1.00
9410;DHT22;4744;52.576;13.568;2022-10-16T10:56:10;18.70;1.00
9410;DHT22;4744;52.576;13.568;2022-10-16T11:01:48;18.80;1.00
9410;DHT22;4744;52.576;13.568;2022-10-16T11:04:45;18.90;1.00
9410;DHT22;4744;52.576;13.568;2022-10-16T11:07:20;19.10;1.00
9410;DHT22;4744;52.576;13.568;2022-10-16T11:09:50;19.30;1.00
9410;DHT22;4744;52.576;13.568;2022-10-16T11:12:21;19.40;1.00
9410;DHT22;4744;52.576;13.568;2022-10-16T11:14:54;19.50;1.00
9410;DHT22;4744;52.576;13.568;2022-10-16T11:17:27;19.50;1.00
9410;DHT22;4744;52.576;13.568;2022-10-16T11:19:58;19.60;1.00
9410;DHT22;4744;52.576;13.568;2022-10-16T11:22:32;19.50;1.00
9410;DHT22;4744;52.576;13.568;2022-10-16T11:25:04;19.40;1.00
9410;DHT22;4744;52.576;13.568;2022-10-16T11:27:41;19.40;1.00
9410;DHT22;4744;52.576;13.568;2022-10-16T11:30:14;19.40;1.00
9410;DHT22;4744;52.576;13.568;2022-10-16T11:32:51;19.40;1.00
9410;DHT22;4744;52.576;13.568;2022-10-16T11:35:22;19.30;1.00
9410;DHT22;4744;52.576;13.568;2022-10-16T11:37:53;19.30;1.00
9410;DHT22;4744;52.576;13.568;2022-10-16T11:40:27;19.30;1.00
9410;DHT22;4744;52.576;13.568;2022-10-16T11:42:59;19.20;1.00
9410;DHT22;4744;52.576;13.568;2022-10-16T11:45:33;19.10;1.00
9410;DHT22;4744;52.576;13.568;2022-10-16T11:48:02;19.10;1.00
9410;DHT22;4744;52.576;13.568;2022-10-16T11:50:37;19.10;1.00
9410;DHT22;4744;52.576;13.568;2022-10-16T11:53:15;19.10;1.00
9410;DHT22;4744;52.576;13.568;2022-10-16T11:55:45;19.10;1.00
9410;DHT22;4744;52.576;13.568;2022-10-16T11:58:20;19.10;1.00
9410;DHT22;4744;52.576;13.568;2022-10-16T12:00:55;19.20;1.00
9410;DHT22;4744;52.576;13.568;2022-10-16T12:03:28;19.20;1.00
9410;DHT22;4744;52.576;13.568;2022-10-16T12:06:06;19.30;1.00
9410;DHT22;4744;52.576;13.568;2022-10-16T12:08:39;19.40;1.00
9410;DHT22;4744;52.576;13.568;2022-10-16T12:11:08;19.40;1.00
9410;DHT22;4744;52.576;13.568;2022-10-16T12:13:37;19.50;1.00
9410;DHT22;4744;52.576;13.568;2022-10-16T12:16:06;19.60;1.00
9410;DHT22;4744;52.576;13.568;2022-10-16T12:18:33;19.60;1.00
9410;DHT22;4744;52.576;13.568;2022-10-16T12:21:00;19.60;1.00
9410;DHT22;4744;52.576;13.568;2022-10-16T12:23:32;19.60;1.00
9410;DHT22;4744;52.576;13.568;2022-10-16T12:26:01;19.70;1.00
9410;DHT22;4744;52.576;13.568;2022-10-16T12:28:30;19.80;1.00
9410;DHT22;4744;52.576;13.568;2022-10-16T12:30:59;19.90;1.00
9410;DHT22;4744;52.576;13.568;2022-10-16T12:33:27;20.00;1.00
9410;DHT22;4744;52.576;13.568;2022-10-16T12:35:55;20.00;1.00
9410;DHT22;4744;52.576;13.568;2022-10-16T12:38:26;20.00;1.00
9410;DHT22;4744;52.576;13.568;2022-10-16T12:40:57;20.10;1.00
9410;DHT22;4744;52.576;13.568;2022-10-16T12:43:36;20.20;1.00
9410;DHT22;4744;52.576;13.568;2022-10-16T12:46:06;20.30;1.00
9410;DHT22;4744;52.576;13.568;2022-10-16T12:48:47;20.40;1.00
9410;DHT22;4744;52.576;13.568;2022-10-16T12:51:23;20.40;1.00
9410;DHT22;4744;52.576;13.568;2022-10-16T12:53:58;20.50;1.00
9410;DHT22;4744;52.576;13.568;2022-10-16T12:56:35;20.50;1.00
9410;DHT22;4744;52.576;13.568;2022-10-16T12:59:13;20.60;1.00
9410;DHT22;4744;52.576;13.568;2022-10-16T13:01:56;20.60;1.00
9410;DHT22;4744;52.576;13.568;2022-10-16T13:07:36;20.50;1.00
9410;DHT22;4744;52.576;13.568;2022-10-16T13:10:15;20.50;1.00
9410;DHT22;4744;52.576;13.568;2022-10-16T13:13:21;20.50;1.00
9410;DHT22;4744;52.576;13.568;2022-10-16T13:16:08;20.50;1.00
9410;DHT22;4744;52.576;13.568;2022-10-16T13:18:47;20.50;1.00
9410;DHT22;4744;52.576;13.568;2022-10-16T13:21:25;20.50;1.00
9410;DHT22;4744;52.576;13.568;2022-10-16T13:24:00;20.50;1.00
9410;DHT22;4744;52.576;13.568;2022-10-16T13:26:35;20.50;1.00
9410;DHT22;4744;52.576;13.568;2022-10-16T13:29:06;20.50;1.00
9410;DHT22;4744;52.576;13.568;2022-10-16T13:31:36;20.50;1.00
9410;DHT22;4744;52.576;13.568;2022-10-16T13:34:05;20.50;1.00
9410;DHT22;4744;52.576;13.568;2022-10-16T13:36:43;20.50;1.00
9410;DHT22;4744;52.576;13.568;2022-10-16T13:39:13;20.50;1.00
9410;DHT22;4744;52.576;13.568;2022-10-16T13:41:40;20.50;1.00
9410;DHT22;4744;52.576;13.568;2022-10-16T13:44:14;20.50;1.00
9410;DHT22;4744;52.576;13.568;2022-10-16T13:46:43;20.50;1.00
9410;DHT22;4744;52.576;13.568;2022-10-16T13:49:15;20.50;1.00
9410;DHT22;4744;52.576;13.568;2022-10-16T13:51:53;20.50;1.00
9410;DHT22;4744;52.576;13.568;2022-10-16T13:54:21;20.40;1.00
9410;DHT22;4744;52.576;13.568;2022-10-16T13:56:47;20.40;1.00
9410;DHT22;4744;52.576;13.568;2022-10-16T13:59:23;20.40;1.00
9410;DHT22;4744;52.576;13.568;2022-10-16T14:01:53;20.40;1.00
9410;DHT22;4744;52.576;13.568;2022-10-16T14:04:21;20.40;1.00
9410;DHT22;4744;52.576;13.568;2022-10-16T14:06:50;20.40;1.00
9410;DHT22;4744;52.576;13.568;2022-10-16T14:09:22;20.30;1.00
9410;DHT22;4744;52.576;13.568;2022-10-16T14:11:51;20.30;1.00
9410;DHT22;4744;52.576;13.568;2022-10-16T14:14:19;20.20;1.00
9410;DHT22;4744;52.576;13.568;2022-10-16T14:16:47;20.20;1.00
9410;DHT22;4744;52.576;13.568;2022-10-16T14:19:20;20.20;1.00
9410;DHT22;4744;52.576;13.568;2022-10-16T14:21:48;20.10;1.00
9410;DHT22;4744;52.576;13.568;2022-10-16T14:24:25;20.10;1.00
9410;DHT22;4744;52.576;13.568;2022-10-16T14:26:52;20.10;1.00
9410;DHT22;4744;52.576;13.568;2022-10-16T14:29:20;20.00;1.00
9410;DHT22;4744;52.576;13.568;2022-10-16T14:31:55;20.00;1.00
9410;DHT22;4744;52.576;13.568;2022-10-16T14:34:29;19.90;1.00
9410;DHT22;4744;52.576;13.568;2022-10-16T14:36:59;19.90;1.00
9410;DHT22;4744;52.576;13.568;2022-10-16T14:39:28;19.80;1.00
9410;DHT22;4744;52.576;13.568;2022-10-16T14:41:56;19.80;1.00
9410;DHT22;4744;52.576;13.568;2022-10-16T14:44:28;19.70;1.00
9410;DHT22;4744;52.576;13.568;2022-10-16T14:46:56;19.70;1.00
9410;DHT22;4744;52.576;13.568;2022-10-16T14:49:25;19.70;1.00
9410;DHT22;4744;52.576;13.568;2022-10-16T14:51:55;19.60;1.00
9410;DHT22;4744;52.576;13.568;2022-10-16T14:54:22;19.60;1.00
9410;DHT22;4744;52.576;13.568;2022-10-16T14:56:50;19.50;1.00
9410;DHT22;4744;52.576;13.568;2022-10-16T14:59:25;19.50;1.00
9410;DHT22;4744;52.576;13.568;2022-10-16T15:01:54;19.50;1.00
9410;DHT22;4744;52.576;13.568;2022-10-16T15:04:21;19.40;1.00
9410;DHT22;4744;52.576;13.568;2022-10-16T15:06:48;19.40;1.00
9410;DHT22;4744;52.576;13.568;2022-10-16T15:09:16;19.40;1.00
9410;DHT22;4744;52.576;13.568;2022-10-16T15:11:43;19.30;1.00
9410;DHT22;4744;52.576;13.568;2022-10-16T15:14:12;19.30;1.00
9410;DHT22;4744;52.576;13.568;2022-10-16T15:16:39;19.20;1.00
9410;DHT22;4744;52.576;13.568;2022-10-16T15:19:05;19.20;1.00
9410;DHT22;4744;52.576;13.568;2022-10-16T15:21:33;19.10;1.00
9410;DHT22;4744;52.576;13.568;2022-10-16T15:24:00;19.00;1.00
9410;DHT22;4744;52.576;13.568;2022-10-16T15:26:29;19.00;1.00
9410;DHT22;4744;52.576;13.568;2022-10-16T15:28:56;18.90;1.00
9410;DHT22;4744;52.576;13.568;2022-10-16T15:31:23;18.90;1.00
9410;DHT22;4744;52.576;13.568;2022-10-16T15:33:51;18.80;1.00
9410;DHT22;4744;52.576;13.568;2022-10-16T15:36:25;18.80;1.00
9410;DHT22;4744;52.576;13.568;2022-10-16T15:38:52;18.70;1.00
9410;DHT22;4744;52.576;13.568;2022-10-16T15:41:19;18.70;1.00
9410;DHT22;4744;52.576;13.568;2022-10-16T15:43:49;18.60;1.00
9410;DHT22;4744;52.576;13.568;2022-10-16T15:46:18;18.60;1.00
9410;DHT22;4744;52.576;13.568;2022-10-16T15:48:45;18.50;1.00
9410;DHT22;4744;52.576;13.568;2022-10-16T15:51:12;18.40;1.00
9410;DHT22;4744;52.576;13.568;2022-10-16T15:53:39;18.40;1.00
9410;DHT22;4744;52.576;13.568;2022-10-16T15:56:08;18.40;1.00
9410;DHT22;4744;52.576;13.568;2022-10-16T15:58:35;18.30;1.00
9410;DHT22;4744;52.576;13.568;2022-10-16T16:01:03;18.20;1.00
9410;DHT22;4744;52.576;13.568;2022-10-16T16:03:31;18.10;1.00
9410;DHT22;4744;52.576;13.568;2022-10-16T16:05:58;18.10;1.00
9410;DHT22;4744;52.576;13.568;2022-10-16T16:08:29;17.90;1.00
9410;DHT22;4744;52.576;13.568;2022-10-16T16:11:00;17.80;1.00
9410;DHT22;4744;52.576;13.568;2022-10-16T16:13:27;17.70;1.00
9410;DHT22;4744;52.576;13.568;2022-10-16T16:15:54;17.60;1.00
9410;DHT22;4744;52.576;13.568;2022-10-16T16:18:22;17.50;1.00
9410;DHT22;4744;52.576;13.568;2022-10-16T16:20:50;17.40;1.00
9410;DHT22;4744;52.576;13.568;2022-10-16T16:23:17;17.30;1.00
9410;DHT22;4744;52.576;13.568;2022-10-16T16:25:44;17.20;1.00
9410;DHT22;4744;52.576;13.568;2022-10-16T16:28:11;17.10;1.00